createdAt,value
2022-10-17T00:01:07.709Z,2.47
2022-10-17T00:03:38.304Z,2.43
2022-10-17T00:06:08.158Z,2.50
2022-10-17T00:08:36.687Z,2.37
2022-10-17T00:11:07.137Z,2.90
2022-10-17T00:13:35.916Z,2.47
2022-10-17T00:16:04.161Z,3.00
2022-10-17T00:18:33.275Z,3.30
2022-10-17T00:21:02.764Z,3.80
2022-10-17T00:23:31.219Z,2.90
2022-10-17T00:26:00.678Z,3.80
2022-10-17T00:28:29.101Z,3.20
2022-10-17T00:30:58.785Z,2.90
2022-10-17T00:33:27.161Z,2.70
2022-10-17T00:36:05.949Z,3.00
2022-10-17T00:38:34.950Z,2.50
2022-10-17T00:41:03.445Z,2.30
2022-10-17T00:43:50.232Z,3.10
2022-10-17T00:46:18.638Z,3.00
2022-10-17T00:48:49.623Z,2.97
2022-10-17T00:51:21.782Z,2.60
2022-10-17T00:53:51.843Z,2.90
2022-10-17T00:56:21.750Z,2.20
2022-10-17T00:58:50.065Z,3.30
2022-10-17T01:01:18.460Z,3.03
2022-10-17T01:03:46.845Z,2.90
2022-10-17T01:06:15.192Z,3.07
2022-10-17T01:08:44.860Z,3.10
2022-10-17T01:11:23.437Z,3.23
2022-10-17T01:13:58.149Z,3.43
2022-10-17T01:16:37.900Z,3.87
2022-10-17T01:19:26.683Z,3.07
2022-10-17T01:22:00.811Z,3.10
2022-10-17T01:25:00.469Z,3.07
2022-10-17T01:27:55.212Z,2.70
2022-10-17T01:31:00.324Z,2.97
2022-10-17T01:33:45.086Z,2.80
2022-10-17T01:36:20.306Z,2.43
2022-10-17T01:38:51.731Z,3.30
2022-10-17T01:41:28.600Z,3.97
2022-10-17T01:44:00.976Z,3.63
2022-10-17T01:46:35.876Z,3.93
2022-10-17T01:49:06.950Z,3.10
2022-10-17T01:51:39.562Z,3.23
2022-10-17T01:54:13.013Z,2.60
2022-10-17T01:56:43.654Z,3.43
2022-10-17T01:59:15.438Z,3.57
2022-10-17T02:01:47.002Z,4.10
2022-10-17T02:04:16.452Z,3.00
2022-10-17T02:06:44.696Z,3.50
2022-10-17T02:09:23.576Z,4.00
2022-10-17T02:12:02.576Z,3.73
2022-10-17T02:14:44.345Z,3.43
2022-10-17T02:17:24.539Z,3.43
2022-10-17T02:20:02.839Z,2.93
2022-10-17T02:22:38.809Z,3.07
2022-10-17T02:25:15.770Z,2.90
2022-10-17T02:27:49.091Z,2.60
2022-10-17T02:30:27.450Z,2.70
2022-10-17T02:33:01.579Z,3.90
2022-10-17T02:35:37.802Z,2.90
2022-10-17T02:38:09.046Z,2.90
2022-10-17T02:40:39.103Z,3.10
2022-10-17T02:43:08.648Z,4.23
2022-10-17T02:45:38.753Z,3.60
2022-10-17T02:48:13.366Z,3.40
2022-10-17T02:50:52.651Z,3.57
2022-10-17T02:53:29.114Z,3.77
2022-10-17T02:56:02.645Z,2.70
2022-10-17T02:58:34.531Z,2.80
2022-10-17T03:01:03.005Z,4.10
2022-10-17T03:03:33.763Z,3.23
2022-10-17T03:06:03.255Z,3.07
2022-10-17T03:08:31.512Z,3.13
2022-10-17T03:11:01.676Z,3.67
2022-10-17T03:13:33.881Z,2.40
2022-10-17T03:16:06.312Z,3.83
2022-10-17T03:18:35.980Z,2.43
2022-10-17T03:21:05.420Z,2.70
2022-10-17T03:23:33.539Z,3.20
2022-10-17T03:26:04.899Z,2.60
2022-10-17T03:28:36.200Z,2.93
2022-10-17T03:31:08.357Z,2.40
2022-10-17T03:33:39.095Z,2.63
2022-10-17T03:36:08.290Z,3.10
2022-10-17T03:38:36.856Z,2.37
2022-10-17T03:41:05.684Z,2.63
2022-10-17T03:43:34.575Z,2.80
2022-10-17T03:46:03.401Z,3.53
2022-10-17T03:48:32.774Z,3.33
2022-10-17T03:51:05.236Z,2.80
2022-10-17T03:53:36.340Z,3.70
2022-10-17T03:56:13.939Z,3.00
2022-10-17T03:58:43.148Z,4.30
2022-10-17T04:01:14.337Z,2.83
2022-10-17T04:03:45.226Z,3.00
2022-10-17T04:06:14.824Z,2.40
2022-10-17T04:08:45.973Z,3.30
2022-10-17T04:11:20.768Z,3.00
2022-10-17T04:13:54.477Z,2.93
2022-10-17T04:16:22.925Z,2.37
2022-10-17T04:19:01.405Z,3.43
2022-10-17T04:21:35.139Z,3.40
2022-10-17T04:24:07.574Z,3.57
2022-10-17T04:27:00.297Z,3.23
2022-10-17T04:29:31.379Z,2.80
2022-10-17T04:32:07.419Z,2.97
2022-10-17T04:34:45.850Z,2.40
2022-10-17T04:37:15.555Z,3.20
2022-10-17T04:39:45.459Z,3.07
2022-10-17T04:42:13.696Z,4.00
2022-10-17T04:44:42.361Z,4.87
2022-10-17T04:47:11.013Z,5.20
2022-10-17T04:52:11.926Z,9.23
2022-10-17T04:54:48.801Z,7.73
2022-10-17T04:57:17.228Z,12.83
2022-10-17T04:59:53.531Z,11.33
2022-10-17T05:02:27.793Z,7.80
2022-10-17T05:04:56.677Z,7.20
2022-10-17T05:07:25.799Z,7.00
2022-10-17T05:10:03.648Z,6.10
2022-10-17T05:12:33.181Z,4.67
2022-10-17T05:15:01.342Z,4.27
2022-10-17T05:17:30.463Z,5.67
2022-10-17T05:19:59.037Z,5.30
2022-10-17T05:22:27.502Z,4.90
2022-10-17T05:24:57.905Z,6.67
2022-10-17T05:27:27.581Z,6.60
2022-10-17T05:29:56.093Z,8.90
2022-10-17T05:32:31.001Z,10.20
2022-10-17T05:35:00.067Z,8.37
2022-10-17T05:37:30.564Z,11.83
2022-10-17T05:39:58.891Z,12.23
2022-10-17T05:42:29.334Z,13.53
2022-10-17T05:44:58.681Z,13.87
2022-10-17T05:47:28.537Z,14.43
2022-10-17T05:49:57.119Z,14.37
2022-10-17T05:52:32.461Z,14.10
2022-10-17T05:55:08.992Z,14.07
2022-10-17T05:57:38.717Z,14.07
2022-10-17T06:00:11.840Z,15.17
2022-10-17T06:02:42.858Z,14.73
2022-10-17T06:05:14.341Z,14.90
2022-10-17T06:07:43.365Z,14.90
2022-10-17T06:10:15.064Z,15.70
2022-10-17T06:12:44.853Z,16.50
2022-10-17T06:15:13.391Z,15.30
2022-10-17T06:17:45.015Z,15.20
2022-10-17T06:20:13.169Z,15.27
2022-10-17T06:22:41.278Z,14.23
2022-10-17T06:25:15.384Z,14.10
2022-10-17T06:27:44.877Z,16.50
2022-10-17T06:30:14.085Z,15.60
2022-10-17T06:32:42.801Z,16.00
2022-10-17T06:35:12.022Z,16.03
2022-10-17T06:37:42.154Z,16.97
2022-10-17T06:40:12.309Z,16.17
2022-10-17T06:42:41.170Z,15.70
2022-10-17T06:45:25.949Z,13.80
2022-10-17T06:48:09.624Z,16.00
2022-10-17T06:50:45.548Z,14.90
2022-10-17T06:53:17.900Z,15.07
2022-10-17T06:56:05.483Z,13.83
2022-10-17T06:58:50.803Z,14.30
2022-10-17T07:01:34.253Z,13.47
2022-10-17T07:04:04.608Z,12.97
2022-10-17T07:06:33.228Z,13.83
2022-10-17T07:09:07.730Z,13.20
2022-10-17T07:11:38.230Z,13.13
2022-10-17T07:14:06.841Z,13.33
2022-10-17T07:16:36.451Z,12.33
2022-10-17T07:19:19.263Z,12.73
2022-10-17T07:21:47.605Z,12.17
2022-10-17T07:24:16.855Z,13.70
2022-10-17T07:26:49.541Z,13.93
2022-10-17T07:29:18.248Z,11.77
2022-10-17T07:32:08.479Z,13.00
2022-10-17T07:34:37.194Z,13.83
2022-10-17T07:37:07.452Z,12.47
2022-10-17T07:39:36.579Z,11.97
2022-10-17T07:42:07.457Z,11.43
2022-10-17T07:44:36.562Z,12.93
2022-10-17T07:47:06.468Z,11.70
2022-10-17T07:49:42.392Z,11.73
2022-10-17T07:52:11.949Z,13.67
2022-10-17T07:54:40.374Z,11.43
2022-10-17T07:57:08.942Z,12.10
2022-10-17T07:59:39.093Z,10.40
2022-10-17T08:02:15.150Z,11.57
2022-10-17T08:04:43.348Z,10.53
2022-10-17T08:07:20.023Z,10.17
2022-10-17T08:09:51.305Z,10.60
2022-10-17T08:12:19.577Z,9.27
2022-10-17T08:14:48.166Z,9.70
2022-10-17T08:17:17.665Z,9.87
2022-10-17T08:19:45.822Z,10.00
2022-10-17T08:22:13.981Z,10.00
2022-10-17T08:24:42.816Z,9.20
2022-10-17T08:27:13.121Z,9.53
2022-10-17T08:29:41.828Z,9.60
2022-10-17T08:32:10.471Z,8.50
2022-10-17T08:34:40.014Z,8.77
2022-10-17T08:37:08.249Z,8.33
2022-10-17T08:39:36.428Z,7.70
2022-10-17T08:42:23.553Z,7.10
2022-10-17T08:45:01.871Z,8.27
2022-10-17T08:47:36.058Z,7.43
2022-10-17T08:50:07.975Z,7.50
2022-10-17T08:52:40.590Z,6.63
2022-10-17T08:55:16.385Z,6.80
2022-10-17T08:57:44.792Z,5.90
2022-10-17T09:00:18.156Z,7.50
2022-10-17T09:02:58.532Z,6.17
2022-10-17T09:05:35.784Z,4.90
2022-10-17T09:08:12.440Z,5.43
2022-10-17T09:10:53.510Z,5.00
2022-10-17T09:16:38.236Z,4.70
2022-10-17T09:19:13.461Z,4.57
2022-10-17T09:21:48.471Z,4.93
2022-10-17T09:24:22.440Z,4.60
2022-10-17T09:26:52.157Z,4.50
2022-10-17T09:29:24.103Z,3.97
2022-10-17T09:32:04.372Z,4.07
2022-10-17T09:34:33.710Z,3.77
2022-10-17T09:37:03.857Z,4.43
2022-10-17T09:39:33.072Z,3.80
2022-10-17T09:42:03.210Z,3.40
2022-10-17T09:44:34.014Z,3.43
2022-10-17T09:47:23.453Z,4.60
2022-10-17T09:49:51.699Z,3.67
2022-10-17T09:52:26.466Z,4.80
2022-10-17T09:54:58.853Z,4.43
2022-10-17T09:57:27.452Z,4.27
2022-10-17T10:00:00.889Z,3.70
2022-10-17T10:02:31.222Z,4.00
2022-10-17T10:05:05.146Z,4.47
2022-10-17T10:07:37.624Z,3.70
2022-10-17T10:10:08.469Z,3.63
2022-10-17T10:12:39.631Z,4.00
2022-10-17T10:15:32.113Z,4.47
2022-10-17T10:18:00.404Z,5.00
2022-10-17T10:20:32.384Z,4.00
2022-10-17T10:23:17.289Z,5.53
2022-10-17T10:25:55.832Z,5.17
2022-10-17T10:28:28.110Z,4.93
2022-10-17T10:30:58.074Z,4.67
2022-10-17T10:33:28.620Z,5.67
2022-10-17T10:35:58.765Z,5.27
2022-10-17T10:38:28.805Z,5.73
2022-10-17T10:41:02.437Z,5.00
2022-10-17T10:43:35.761Z,5.10
2022-10-17T10:46:07.348Z,5.43
2022-10-17T10:48:37.197Z,5.40
2022-10-17T10:51:09.184Z,5.10
2022-10-17T10:53:45.339Z,5.10
2022-10-17T10:56:18.267Z,5.50
2022-10-17T10:58:56.517Z,5.17
2022-10-17T11:01:31.396Z,5.17
2022-10-17T11:04:19.077Z,4.20
2022-10-17T11:06:50.313Z,5.20
2022-10-17T11:09:31.419Z,4.87
2022-10-17T11:12:07.892Z,5.17
2022-10-17T11:14:44.959Z,5.70
2022-10-17T11:17:24.121Z,6.03
2022-10-17T11:20:00.391Z,5.10
2022-10-17T11:22:33.086Z,4.43
2022-10-17T11:25:15.404Z,5.57
2022-10-17T11:27:43.659Z,5.00
2022-10-17T11:30:14.799Z,5.67
2022-10-17T11:32:46.752Z,5.27
2022-10-17T11:35:21.822Z,5.70
2022-10-17T11:37:54.993Z,4.83
2022-10-17T11:40:33.806Z,5.73
2022-10-17T11:43:05.886Z,6.03
2022-10-17T11:45:40.214Z,5.40
2022-10-17T11:48:14.676Z,5.03
2022-10-17T11:53:51.629Z,5.97
2022-10-17T11:56:28.594Z,5.77
2022-10-17T11:59:06.777Z,5.00
2022-10-17T12:01:39.987Z,6.10
2022-10-17T12:04:20.782Z,5.30
2022-10-17T12:07:01.030Z,5.70
2022-10-17T12:09:40.790Z,6.10
2022-10-17T12:12:10.649Z,5.37
2022-10-17T12:14:43.535Z,6.03
2022-10-17T12:17:30.636Z,5.33
2022-10-17T12:20:25.159Z,5.07
2022-10-17T12:22:55.257Z,5.53
2022-10-17T12:25:29.787Z,5.53
2022-10-17T12:28:13.533Z,5.40
2022-10-17T12:30:58.521Z,5.07
2022-10-17T12:33:34.611Z,5.67
2022-10-17T12:36:46.710Z,5.23
2022-10-17T12:39:54.069Z,5.80
2022-10-17T12:42:48.579Z,5.53
2022-10-17T12:45:51.350Z,5.80
2022-10-17T12:49:00.109Z,4.77
2022-10-17T12:51:37.897Z,5.00
2022-10-17T12:54:13.227Z,5.63
2022-10-17T12:56:43.933Z,5.40
2022-10-17T12:59:16.830Z,5.43
2022-10-17T13:01:49.507Z,5.63
2022-10-17T13:04:18.790Z,5.90
2022-10-17T13:06:49.700Z,5.57
2022-10-17T13:09:26.021Z,5.77
2022-10-17T13:11:55.050Z,5.37
2022-10-17T13:14:24.437Z,5.30
2022-10-17T13:16:56.851Z,5.37
2022-10-17T13:19:26.992Z,5.60
2022-10-17T13:21:59.856Z,6.50
2022-10-17T13:24:34.347Z,4.67
2022-10-17T13:27:03.271Z,5.47
2022-10-17T13:29:32.792Z,4.70
2022-10-17T13:32:04.764Z,6.60
2022-10-17T13:34:34.735Z,6.10
2022-10-17T13:37:06.000Z,5.80
2022-10-17T13:39:54.398Z,5.60
2022-10-17T13:42:27.230Z,4.93
2022-10-17T13:44:56.770Z,5.07
2022-10-17T13:47:29.346Z,5.00
2022-10-17T13:49:59.050Z,4.23
2022-10-17T13:52:30.899Z,4.70
2022-10-17T13:55:11.733Z,4.90
2022-10-17T13:57:41.711Z,4.53
2022-10-17T14:00:19.296Z,5.03
2022-10-17T14:02:49.840Z,5.40
2022-10-17T14:05:20.522Z,4.70
2022-10-17T14:10:43.212Z,5.00
2022-10-17T14:13:21.909Z,4.70
2022-10-17T14:15:51.171Z,4.60
2022-10-17T14:18:25.357Z,4.90
2022-10-17T14:23:44.337Z,5.43
2022-10-17T14:26:16.469Z,5.10
2022-10-17T14:28:47.058Z,5.10
2022-10-17T14:31:32.102Z,4.50
2022-10-17T14:34:03.807Z,5.53
2022-10-17T14:36:35.690Z,5.23
2022-10-17T14:39:09.479Z,4.17
2022-10-17T14:41:45.343Z,4.97
2022-10-17T14:44:26.821Z,5.33
2022-10-17T14:46:59.359Z,5.50
2022-10-17T14:49:38.018Z,5.50
2022-10-17T14:52:27.616Z,5.43
2022-10-17T14:54:56.497Z,5.90
2022-10-17T14:57:28.409Z,6.10
2022-10-17T14:59:57.820Z,5.50
2022-10-17T15:02:27.292Z,5.93
2022-10-17T15:04:57.162Z,5.70
2022-10-17T15:07:25.377Z,7.10
2022-10-17T15:09:54.543Z,5.90
2022-10-17T15:12:25.703Z,5.17
2022-10-17T15:14:54.724Z,6.73
2022-10-17T15:17:25.693Z,6.90
2022-10-17T15:19:54.237Z,6.20
2022-10-17T15:22:24.501Z,6.53
2022-10-17T15:24:53.034Z,5.40
2022-10-17T15:27:23.690Z,6.60
2022-10-17T15:29:52.988Z,5.63
2022-10-17T15:32:21.384Z,6.97
2022-10-17T15:34:49.745Z,6.27
2022-10-17T15:37:21.957Z,6.10
2022-10-17T15:39:54.299Z,6.17
2022-10-17T15:42:23.784Z,6.30
2022-10-17T15:44:51.940Z,6.27
2022-10-17T15:47:25.366Z,6.50
2022-10-17T15:49:54.208Z,6.10
2022-10-17T15:52:23.008Z,6.27
2022-10-17T15:54:52.836Z,6.17
2022-10-17T15:57:23.567Z,7.10
2022-10-17T15:59:52.573Z,6.40
2022-10-17T16:02:22.902Z,6.97
2022-10-17T16:04:52.595Z,7.10
2022-10-17T16:07:21.682Z,7.73
2022-10-17T16:09:49.867Z,8.40
2022-10-17T16:14:56.636Z,12.07
2022-10-17T16:17:24.804Z,11.67
2022-10-17T16:19:53.062Z,11.17
2022-10-17T16:22:30.043Z,10.40
2022-10-17T16:25:07.389Z,10.13
2022-10-17T16:27:37.867Z,9.67
2022-10-17T16:30:07.900Z,8.87
2022-10-17T16:32:36.092Z,8.00
2022-10-17T16:35:04.956Z,9.33
2022-10-17T16:37:33.116Z,9.00
2022-10-17T16:40:01.220Z,8.13
2022-10-17T16:42:29.673Z,7.53
2022-10-17T16:44:59.482Z,8.20
2022-10-17T16:47:27.660Z,9.50
2022-10-17T16:49:56.270Z,8.10
2022-10-17T16:52:24.461Z,7.70
2022-10-17T16:54:53.151Z,9.60
2022-10-17T16:57:21.366Z,7.30
2022-10-17T16:59:49.578Z,8.70
2022-10-17T17:02:21.278Z,9.13
2022-10-17T17:04:49.888Z,8.67
2022-10-17T17:07:19.640Z,9.27
2022-10-17T17:09:47.904Z,9.50
2022-10-17T17:12:16.358Z,8.30
2022-10-17T17:14:44.529Z,8.50
2022-10-17T17:17:19.675Z,8.80
2022-10-17T17:20:00.167Z,8.67
2022-10-17T17:22:28.328Z,8.20
2022-10-17T17:24:56.781Z,8.13
2022-10-17T17:27:25.183Z,8.40
2022-10-17T17:29:53.659Z,8.47
2022-10-17T17:32:21.832Z,7.97
2022-10-17T17:34:49.988Z,7.97
2022-10-17T17:37:19.508Z,8.70
2022-10-17T17:39:47.696Z,9.30
2022-10-17T17:42:15.921Z,7.63
2022-10-17T17:44:45.085Z,9.53
2022-10-17T17:47:13.287Z,8.30
2022-10-17T17:49:41.535Z,8.40
2022-10-17T17:52:09.731Z,8.37
2022-10-17T17:54:40.955Z,9.37
2022-10-17T17:57:09.339Z,9.10
2022-10-17T17:59:39.085Z,9.57
2022-10-17T18:02:08.837Z,8.40
2022-10-17T18:04:37.085Z,9.47
2022-10-17T18:07:05.619Z,9.10
2022-10-17T18:09:33.797Z,9.80
2022-10-17T18:12:03.274Z,9.10
2022-10-17T18:14:31.434Z,9.43
2022-10-17T18:16:59.595Z,9.47
2022-10-17T18:19:28.300Z,9.50
2022-10-17T18:21:56.565Z,9.50
2022-10-17T18:24:24.742Z,9.30
2022-10-17T18:26:56.031Z,11.10
2022-10-17T18:29:25.551Z,9.67
2022-10-17T18:31:53.672Z,10.27
2022-10-17T18:34:21.962Z,11.33
2022-10-17T18:36:50.845Z,11.27
2022-10-17T18:39:19.121Z,10.90
2022-10-17T18:41:47.448Z,11.63
2022-10-17T18:44:16.834Z,11.30
2022-10-17T18:46:46.935Z,11.30
2022-10-17T18:49:19.513Z,11.70
2022-10-17T18:51:48.000Z,11.00
2022-10-17T18:54:20.381Z,11.63
2022-10-17T18:56:49.968Z,11.90
2022-10-17T18:59:18.374Z,12.03
2022-10-17T19:01:48.370Z,13.70
2022-10-17T19:04:16.852Z,11.60
2022-10-17T19:06:45.450Z,12.07
2022-10-17T19:09:15.097Z,12.10
2022-10-17T19:11:44.012Z,11.60
2022-10-17T19:14:14.025Z,11.50
2022-10-17T19:16:44.152Z,13.43
2022-10-17T19:19:16.311Z,12.00
2022-10-17T19:21:45.337Z,12.53
2022-10-17T19:24:15.251Z,12.77
2022-10-17T19:26:44.527Z,13.47
2022-10-17T19:29:15.340Z,12.80
2022-10-17T19:31:44.348Z,14.03
2022-10-17T19:34:14.992Z,12.30
2022-10-17T19:36:43.726Z,12.33
2022-10-17T19:39:13.987Z,13.50
2022-10-17T19:41:43.042Z,14.10
2022-10-17T19:44:11.677Z,14.27
2022-10-17T19:46:40.068Z,13.10
2022-10-17T19:49:08.683Z,14.77
2022-10-17T19:51:38.153Z,14.47
2022-10-17T19:54:06.315Z,14.13
2022-10-17T19:56:37.663Z,15.27
2022-10-17T19:59:07.109Z,13.60
2022-10-17T20:01:38.766Z,13.97
2022-10-17T20:04:07.434Z,13.70
2022-10-17T20:06:36.161Z,14.73
2022-10-17T20:09:06.877Z,16.13
2022-10-17T20:11:36.381Z,15.17
2022-10-17T20:14:04.529Z,15.33
2022-10-17T20:16:34.398Z,13.83
2022-10-17T20:19:08.350Z,14.73
2022-10-17T20:21:39.418Z,13.83
2022-10-17T20:24:12.048Z,15.93
2022-10-17T20:26:40.429Z,15.03
2022-10-17T20:29:12.526Z,15.90
2022-10-17T20:31:42.394Z,14.53
2022-10-17T20:34:13.964Z,14.30
2022-10-17T20:36:42.145Z,15.00
2022-10-17T20:39:13.321Z,16.07
2022-10-17T20:41:41.863Z,17.50
2022-10-17T20:44:10.500Z,15.13
2022-10-17T20:46:44.778Z,14.40
2022-10-17T20:49:18.780Z,15.70
2022-10-17T20:51:47.181Z,15.03
2022-10-17T20:54:16.784Z,15.67
2022-10-17T20:56:46.291Z,16.20
2022-10-17T20:59:17.019Z,15.70
2022-10-17T21:01:46.188Z,16.07
2022-10-17T21:04:44.730Z,16.07
2022-10-17T21:07:03.407Z,15.90
2022-10-17T21:09:32.995Z,15.77
2022-10-17T21:14:36.393Z,16.23
2022-10-17T21:17:05.583Z,17.30
2022-10-17T21:19:34.157Z,16.10
2022-10-17T21:22:02.545Z,16.90
2022-10-17T21:24:33.174Z,15.70
2022-10-17T21:27:01.347Z,16.57
2022-10-17T21:29:29.592Z,15.80
2022-10-17T21:31:57.710Z,16.67
2022-10-17T21:34:26.280Z,16.43
2022-10-17T21:36:54.533Z,16.30
2022-10-17T21:39:24.178Z,15.17
2022-10-17T21:41:54.391Z,15.17
2022-10-17T21:44:24.266Z,16.70
2022-10-17T21:46:52.805Z,16.30
2022-10-17T21:49:23.327Z,15.67
2022-10-17T21:51:52.823Z,17.47
2022-10-17T21:54:22.923Z,17.33
2022-10-17T21:56:51.900Z,20.10
2022-10-17T21:59:21.365Z,17.80
2022-10-17T22:01:49.868Z,18.60
2022-10-17T22:04:20.242Z,19.40
2022-10-17T22:06:51.410Z,18.20
2022-10-17T22:09:25.478Z,18.77
2022-10-17T22:11:55.676Z,20.13
2022-10-17T22:14:27.321Z,19.03
2022-10-17T22:16:56.163Z,17.40
2022-10-17T22:19:27.584Z,17.90
2022-10-17T22:21:56.140Z,18.57
2022-10-17T22:24:24.278Z,16.97
2022-10-17T22:26:52.711Z,18.23
2022-10-17T22:29:21.019Z,16.30
2022-10-17T22:31:50.736Z,17.57
2022-10-17T22:34:19.664Z,18.80
2022-10-17T22:36:48.886Z,17.70
2022-10-17T22:39:17.121Z,18.00
2022-10-17T22:41:45.319Z,17.77
2022-10-17T22:44:13.763Z,17.80
2022-10-17T22:46:42.012Z,17.57
2022-10-17T22:49:11.515Z,20.77
2022-10-17T22:51:39.659Z,16.70
2022-10-17T22:54:07.886Z,18.13
2022-10-17T22:56:36.037Z,18.73
2022-10-17T22:59:04.769Z,20.10
2022-10-17T23:01:33.051Z,19.87
2022-10-17T23:04:01.297Z,21.27
2022-10-17T23:06:30.917Z,23.10
2022-10-17T23:08:59.078Z,25.20
2022-10-17T23:11:27.222Z,21.00
2022-10-17T23:13:55.399Z,25.13
2022-10-17T23:16:23.912Z,24.80
2022-10-17T23:18:52.055Z,22.70
2022-10-17T23:21:20.180Z,23.50
2022-10-17T23:23:49.805Z,22.23
2022-10-17T23:26:17.926Z,24.30
2022-10-17T23:28:46.127Z,26.30
2022-10-17T23:31:16.793Z,26.13
2022-10-17T23:33:46.195Z,25.60
2022-10-17T23:36:16.132Z,24.80
2022-10-17T23:38:45.943Z,27.40
2022-10-17T23:41:16.037Z,31.07
2022-10-17T23:43:44.778Z,29.37
2022-10-17T23:46:13.626Z,34.37
2022-10-17T23:48:41.815Z,35.57
2022-10-17T23:51:11.905Z,33.13
2022-10-17T23:53:41.224Z,32.70
2022-10-17T23:56:11.337Z,34.60
2022-10-17T23:58:41.084Z,32.33
